Wednesday, July 30, 2014
21:23 UTC
  |  Log In   |  Register Free
Airport Search:

La Guardia Airport
(KLGA)

La Guardia Airport Diagram
No Airport Diagram Available

FAA data valid effective July 24, 2014 until September 18, 2014 (unless otherwise noted).

 
 
 
 
 
 
 
 
 
 
 
 
 
 

Current Aviation Weather for La Guardia Airport (KLGA)

The most recent METAR observation for KLGA was updated at: 1851 UTC
METAR Summary (Translated METAR)
KLGA
281851Z 24009G21KT 10SM SCT050 BKN060 BKN150 29/16 A2951 RMK AO2 SLP993 T02890156
KTEB
(9.6 nm NW from KLGA)
281851Z 24012G21KT 10SM SCT050 BKN060 30/16 A2951 RMK AO2 SLP994 T03000156
TAF Summary (Translated TAF)
KLGA
302031Z 3021/3118 27007KT P6SM SCT070 FM302145 20009KT P6SM SCT070 FM310300 22006KT P6SM SCT250 FM311600 20010KT P6SM BKN050
KTEB
(9.6 nm NW from KLGA)
302031Z 3021/3118 26006KT P6SM SCT070 TEMPO 3021/3022 BKN070 FM302200 23007KT P6SM SCT070 FM310100 VRB03KT P6SM SCT250 FM311400 22008KT P6SM BKN050
  Airport Weather Conditions for KLGA

 Current Weather at LGA
80° F
Partly Cloudy
West winds at 11.5 mph
LGA NOAA Radar

Pressure: 30.00 in
Humidity: 31%
Wind: from the West at 11.5 gusting to 18.4 MPH (10 gusting to 16 KT)
Dew Point: 46.9°F
Visibility: 10.00 mi


Airport Weather Forecast for KLGA

Translated METAR and TAF for KLGA
Translated METAR for KLGA (2116 UTC 30 July 2014)
found at http://aviationweather.gov/adds/metars/
 
METAR text: KLGA 302051Z 25010G16KT 10SM SCT070 27/08 A3000 RMK AO2 SLP157 T02670083 55002
Conditions at: KLGA (NYC/LA GUARDIA , NY, US) observed 2051 UTC 30 July 2014
Temperature: 26.7°C (80°F)
Dewpoint: 8.3°C (47°F) [RH = 31%]
Pressure (altimeter): 30.00 inches Hg (1016.0 mb)
[Sea-level pressure: 1015.7 mb]
Winds: from the WSW (250 degrees) at 12 MPH (10 knots; 5.2 m/s)
gusting to 18 MPH (16 knots; 8.3 m/s)
Visibility: 10 or more miles (16+ km)
Ceiling: at least 12,000 feet AGL
Clouds: scattered clouds at 7000 feet AGL
Weather: no significant weather observed at this time
Translated TAF for KLGA
Forecast for: KLGA (NYC/LA GUARDIA , NY, US)
TAF Text: KLGA 302031Z 3021/3118 27007KT P6SM SCT070
Forecast period: 2100 to 2145 UTC 30 July 2014
Forecast type: FROM: standard forecast or significant change
Winds: from the W (270 degrees) at 8 MPH (7 knots; 3.6 m/s)
Visibility: 6 or more miles (10+ km)
Clouds: scattered clouds at 7000 feet AGL
Weather: no significant weather forecast for this period
TAF Text: FM302145 20009KT P6SM SCT070
Forecast period: 2145 UTC 30 July 2014 to 0300 UTC 31 July 2014
Forecast type: FROM: standard forecast or significant change
Winds: from the SSW (200 degrees) at 10 MPH (9 knots; 4.7 m/s)
Visibility: 6 or more miles (10+ km)
Clouds: scattered clouds at 7000 feet AGL
Weather: no significant weather forecast for this period
TAF Text: FM310300 22006KT P6SM SCT250
Forecast period: 0300 to 1600 UTC 31 July 2014
Forecast type: FROM: standard forecast or significant change
Winds: from the SW (220 degrees) at 7 MPH (6 knots; 3.1 m/s)
Visibility: 6 or more miles (10+ km)
Clouds: scattered clouds at 25000 feet AGL
Weather: no significant weather forecast for this period
TAF Text: FM311600 20010KT P6SM BKN050
Forecast period: 1600 to 1800 UTC 31 July 2014
Forecast type: FROM: standard forecast or significant change
Winds: from the SSW (200 degrees) at 12 MPH (10 knots; 5.2 m/s)
Visibility: 6 or more miles (10+ km)
Ceiling: 5000 feet AGL
Clouds: broken clouds at 5000 feet AGL
Weather: no significant weather forecast for this period

Find All Airport Services Find A Hotel Find A Rental Car Find A Golf Course Find A Restaurant $100 Hamburger



FBO's on the Field
FBO Company Facility Photos Services Transportation Aviation Fuel Prices: Prices include tax
Catering Weather Repair Courtesy Rental Type 100LL JetA JetA+ MOGAS 8087
 
Sheltair

This FBO has not yet been rated
FS:Avfuel
Last Updated: Jul-08
Login to update fuel prices
SS:
Contact SheltairMore FBO Information
 
Add another FBO Facility Photos Catering Weather Repair Courtesy Rental Type 100LL JetA JetA+ MOGAS 8087
Services Transportation Aviation Fuel Prices: Prices include tax


GlobalAir.com Airport Resource Center model-print
model-print
model-print
model-print